San Antonio, Texas
Traffic Map
Current Weather Conditions
San Antonio, Texas
Scattered Clouds
Scattered Clouds

Feels Like: 7°
Wind Chill: Ceiling: Unl
Heat Index: Visibility: 10mi
Dew Point: Wind: 3mph
Humidity: 76% Direction: 270° (W)
Pressure: 30.22in Gusts: 0mph
Raw Report DataKSAT 160851Z 27003KT 10SM SCT085 SCT220 07/03 A3022 RMK AO2 SLP223 T00720033 58015 $
Traffic Incident Summary
Active as of:
Severity:
Category:
InformationThere was an issue retrieving the traffic information for this location. Please try a different location or try again shortly.
Advertisements